sensor_id;sensor_type;location;lat;lon;timestamp;temperature;humidity
31263;DHT22;17892;52.080;9.006;2023-04-03T00:01:15;3.50;99.90
31263;DHT22;17892;52.080;9.006;2023-04-03T00:03:41;3.40;99.90
31263;DHT22;17892;52.080;9.006;2023-04-03T00:06:07;3.40;99.90
31263;DHT22;17892;52.080;9.006;2023-04-03T00:08:34;3.30;99.90
31263;DHT22;17892;52.080;9.006;2023-04-03T00:11:01;3.30;99.90
31263;DHT22;17892;52.080;9.006;2023-04-03T00:13:28;3.30;99.90
31263;DHT22;17892;52.080;9.006;2023-04-03T00:15:53;3.30;99.90
31263;DHT22;17892;52.080;9.006;2023-04-03T00:18:20;3.30;99.90
31263;DHT22;17892;52.080;9.006;2023-04-03T00:20:45;3.40;99.90
31263;DHT22;17892;52.080;9.006;2023-04-03T00:23:11;3.20;99.90
31263;DHT22;17892;52.080;9.006;2023-04-03T00:25:37;3.20;99.90
31263;DHT22;17892;52.080;9.006;2023-04-03T00:28:04;3.20;99.90
31263;DHT22;17892;52.080;9.006;2023-04-03T00:30:30;3.10;99.90
31263;DHT22;17892;52.080;9.006;2023-04-03T00:32:57;3.10;99.90
31263;DHT22;17892;52.080;9.006;2023-04-03T00:35:24;3.00;99.90
31263;DHT22;17892;52.080;9.006;2023-04-03T00:37:54;3.00;99.90
31263;DHT22;17892;52.080;9.006;2023-04-03T00:40:22;3.00;99.90
31263;DHT22;17892;52.080;9.006;2023-04-03T00:42:51;2.90;99.90
31263;DHT22;17892;52.080;9.006;2023-04-03T00:45:53;2.90;99.90
31263;DHT22;17892;52.080;9.006;2023-04-03T00:48:25;2.80;99.90
31263;DHT22;17892;52.080;9.006;2023-04-03T00:50:58;2.80;99.90
31263;DHT22;17892;52.080;9.006;2023-04-03T00:53:33;2.80;99.90
31263;DHT22;17892;52.080;9.006;2023-04-03T00:56:06;2.70;99.90
31263;DHT22;17892;52.080;9.006;2023-04-03T00:58:41;2.70;99.90
31263;DHT22;17892;52.080;9.006;2023-04-03T01:01:13;2.70;99.90
31263;DHT22;17892;52.080;9.006;2023-04-03T01:03:41;2.70;99.90
31263;DHT22;17892;52.080;9.006;2023-04-03T01:06:07;2.60;99.90
31263;DHT22;17892;52.080;9.006;2023-04-03T01:08:33;2.60;99.90
31263;DHT22;17892;52.080;9.006;2023-04-03T01:10:59;2.50;99.90
31263;DHT22;17892;52.080;9.006;2023-04-03T01:13:32;2.50;99.90
31263;DHT22;17892;52.080;9.006;2023-04-03T01:16:04;2.50;99.90
31263;DHT22;17892;52.080;9.006;2023-04-03T01:18:31;2.50;99.90
31263;DHT22;17892;52.080;9.006;2023-04-03T01:26:34;2.40;99.90
31263;DHT22;17892;52.080;9.006;2023-04-03T01:29:01;2.40;99.90
31263;DHT22;17892;52.080;9.006;2023-04-03T01:31:31;2.40;99.90
31263;DHT22;17892;52.080;9.006;2023-04-03T01:34:08;2.30;99.90
31263;DHT22;17892;52.080;9.006;2023-04-03T01:36:33;2.30;99.90
31263;DHT22;17892;52.080;9.006;2023-04-03T01:38:59;2.30;99.90
31263;DHT22;17892;52.080;9.006;2023-04-03T01:41:26;2.20;99.90
31263;DHT22;17892;52.080;9.006;2023-04-03T01:43:53;2.20;99.90
31263;DHT22;17892;52.080;9.006;2023-04-03T01:46:19;2.10;99.90
31263;DHT22;17892;52.080;9.006;2023-04-03T01:48:45;2.10;99.90
31263;DHT22;17892;52.080;9.006;2023-04-03T01:51:11;2.10;99.90
31263;DHT22;17892;52.080;9.006;2023-04-03T01:53:37;2.10;99.90
31263;DHT22;17892;52.080;9.006;2023-04-03T01:56:03;2.00;99.90
31263;DHT22;17892;52.080;9.006;2023-04-03T01:58:29;2.00;99.90
31263;DHT22;17892;52.080;9.006;2023-04-03T02:00:55;1.90;99.90
31263;DHT22;17892;52.080;9.006;2023-04-03T02:03:21;1.90;99.90
31263;DHT22;17892;52.080;9.006;2023-04-03T02:05:47;1.80;99.90
31263;DHT22;17892;52.080;9.006;2023-04-03T02:08:13;1.80;99.90
31263;DHT22;17892;52.080;9.006;2023-04-03T02:10:39;1.70;99.90
31263;DHT22;17892;52.080;9.006;2023-04-03T02:13:05;1.70;99.90
31263;DHT22;17892;52.080;9.006;2023-04-03T02:15:31;1.60;99.90
31263;DHT22;17892;52.080;9.006;2023-04-03T02:17:56;1.60;99.90
31263;DHT22;17892;52.080;9.006;2023-04-03T02:20:22;1.50;99.90
31263;DHT22;17892;52.080;9.006;2023-04-03T02:22:48;1.50;99.90
31263;DHT22;17892;52.080;9.006;2023-04-03T02:25:14;1.50;99.90
31263;DHT22;17892;52.080;9.006;2023-04-03T02:27:40;1.40;99.90
31263;DHT22;17892;52.080;9.006;2023-04-03T02:30:06;1.40;99.90
31263;DHT22;17892;52.080;9.006;2023-04-03T02:32:32;1.30;99.90
31263;DHT22;17892;52.080;9.006;2023-04-03T02:34:58;1.30;99.90
31263;DHT22;17892;52.080;9.006;2023-04-03T02:37:24;1.20;99.90
31263;DHT22;17892;52.080;9.006;2023-04-03T02:39:49;1.20;99.90
31263;DHT22;17892;52.080;9.006;2023-04-03T02:42:15;1.20;99.90
31263;DHT22;17892;52.080;9.006;2023-04-03T02:44:41;1.20;99.90
31263;DHT22;17892;52.080;9.006;2023-04-03T02:47:07;1.20;99.90
31263;DHT22;17892;52.080;9.006;2023-04-03T02:49:32;1.20;99.90
31263;DHT22;17892;52.080;9.006;2023-04-03T02:51:58;1.10;99.90
31263;DHT22;17892;52.080;9.006;2023-04-03T02:54:24;1.10;99.90
31263;DHT22;17892;52.080;9.006;2023-04-03T02:56:53;1.10;99.90
31263;DHT22;17892;52.080;9.006;2023-04-03T02:59:19;1.10;99.90
31263;DHT22;17892;52.080;9.006;2023-04-03T03:01:45;1.10;99.90
31263;DHT22;17892;52.080;9.006;2023-04-03T03:04:11;1.10;99.90
31263;DHT22;17892;52.080;9.006;2023-04-03T03:06:36;1.10;99.90
31263;DHT22;17892;52.080;9.006;2023-04-03T03:09:03;1.10;99.90
31263;DHT22;17892;52.080;9.006;2023-04-03T03:11:29;1.10;99.90
31263;DHT22;17892;52.080;9.006;2023-04-03T03:13:55;1.10;99.90
31263;DHT22;17892;52.080;9.006;2023-04-03T03:16:21;1.10;99.90
31263;DHT22;17892;52.080;9.006;2023-04-03T03:18:47;1.10;99.90
31263;DHT22;17892;52.080;9.006;2023-04-03T03:21:12;1.10;99.90
31263;DHT22;17892;52.080;9.006;2023-04-03T03:23:38;1.00;99.90
31263;DHT22;17892;52.080;9.006;2023-04-03T03:26:06;1.00;99.90
31263;DHT22;17892;52.080;9.006;2023-04-03T03:28:34;1.00;99.90
31263;DHT22;17892;52.080;9.006;2023-04-03T03:31:01;1.00;99.90
31263;DHT22;17892;52.080;9.006;2023-04-03T03:33:28;1.00;99.90
31263;DHT22;17892;52.080;9.006;2023-04-03T03:35:54;1.00;99.90
31263;DHT22;17892;52.080;9.006;2023-04-03T03:38:20;1.00;99.90
31263;DHT22;17892;52.080;9.006;2023-04-03T03:40:47;1.00;99.90
31263;DHT22;17892;52.080;9.006;2023-04-03T03:43:14;1.10;99.90
31263;DHT22;17892;52.080;9.006;2023-04-03T03:45:40;1.00;99.90
31263;DHT22;17892;52.080;9.006;2023-04-03T03:48:06;1.00;99.90
31263;DHT22;17892;52.080;9.006;2023-04-03T03:50:32;1.00;99.90
31263;DHT22;17892;52.080;9.006;2023-04-03T03:52:58;1.00;99.90
31263;DHT22;17892;52.080;9.006;2023-04-03T03:55:24;1.00;99.90
31263;DHT22;17892;52.080;9.006;2023-04-03T03:57:49;1.00;99.90
31263;DHT22;17892;52.080;9.006;2023-04-03T04:00:15;1.00;99.90
31263;DHT22;17892;52.080;9.006;2023-04-03T04:02:42;1.00;99.90
31263;DHT22;17892;52.080;9.006;2023-04-03T04:05:08;1.00;99.90
31263;DHT22;17892;52.080;9.006;2023-04-03T04:07:34;1.00;99.90
31263;DHT22;17892;52.080;9.006;2023-04-03T04:09:59;1.00;99.90
31263;DHT22;17892;52.080;9.006;2023-04-03T04:12:25;1.00;99.90
31263;DHT22;17892;52.080;9.006;2023-04-03T04:14:51;1.00;99.90
31263;DHT22;17892;52.080;9.006;2023-04-03T04:17:17;1.00;99.90
31263;DHT22;17892;52.080;9.006;2023-04-03T04:19:43;1.00;99.90
31263;DHT22;17892;52.080;9.006;2023-04-03T04:22:08;1.00;99.90
31263;DHT22;17892;52.080;9.006;2023-04-03T04:24:34;1.00;99.90
31263;DHT22;17892;52.080;9.006;2023-04-03T04:27:01;1.00;99.90
31263;DHT22;17892;52.080;9.006;2023-04-03T04:29:26;1.00;99.90
31263;DHT22;17892;52.080;9.006;2023-04-03T04:31:52;1.00;99.90
31263;DHT22;17892;52.080;9.006;2023-04-03T04:34:18;1.00;99.90
31263;DHT22;17892;52.080;9.006;2023-04-03T04:36:43;1.00;99.90
31263;DHT22;17892;52.080;9.006;2023-04-03T04:39:09;1.00;99.90
31263;DHT22;17892;52.080;9.006;2023-04-03T04:41:35;1.00;99.90
31263;DHT22;17892;52.080;9.006;2023-04-03T04:44:01;0.90;99.90
31263;DHT22;17892;52.080;9.006;2023-04-03T04:46:26;0.90;99.90
31263;DHT22;17892;52.080;9.006;2023-04-03T04:48:52;0.90;99.90
31263;DHT22;17892;52.080;9.006;2023-04-03T04:51:19;0.80;99.90
31263;DHT22;17892;52.080;9.006;2023-04-03T04:53:44;0.80;99.90
31263;DHT22;17892;52.080;9.006;2023-04-03T04:56:10;0.80;99.90
31263;DHT22;17892;52.080;9.006;2023-04-03T04:58:36;0.70;99.90
31263;DHT22;17892;52.080;9.006;2023-04-03T05:01:04;0.70;99.90
31263;DHT22;17892;52.080;9.006;2023-04-03T05:03:31;0.70;99.90
31263;DHT22;17892;52.080;9.006;2023-04-03T05:05:57;0.70;99.90
31263;DHT22;17892;52.080;9.006;2023-04-03T05:08:23;0.60;99.90
31263;DHT22;17892;52.080;9.006;2023-04-03T05:10:49;0.60;99.90
31263;DHT22;17892;52.080;9.006;2023-04-03T05:13:15;0.60;99.90
31263;DHT22;17892;52.080;9.006;2023-04-03T05:15:41;0.60;99.90
31263;DHT22;17892;52.080;9.006;2023-04-03T05:18:06;0.60;99.90
31263;DHT22;17892;52.080;9.006;2023-04-03T05:20:33;0.60;99.90
31263;DHT22;17892;52.080;9.006;2023-04-03T05:22:59;0.60;99.90
31263;DHT22;17892;52.080;9.006;2023-04-03T05:25:25;0.60;99.90
31263;DHT22;17892;52.080;9.006;2023-04-03T05:27:51;0.60;99.90
31263;DHT22;17892;52.080;9.006;2023-04-03T05:30:17;0.60;99.90
31263;DHT22;17892;52.080;9.006;2023-04-03T05:32:43;0.60;99.90
31263;DHT22;17892;52.080;9.006;2023-04-03T05:35:09;0.60;99.90
31263;DHT22;17892;52.080;9.006;2023-04-03T05:37:36;0.70;99.90
31263;DHT22;17892;52.080;9.006;2023-04-03T05:40:05;0.70;99.90
31263;DHT22;17892;52.080;9.006;2023-04-03T05:42:31;0.70;99.90
31263;DHT22;17892;52.080;9.006;2023-04-03T05:44:57;0.70;99.90
31263;DHT22;17892;52.080;9.006;2023-04-03T05:47:23;0.80;99.90
31263;DHT22;17892;52.080;9.006;2023-04-03T05:49:48;0.90;99.90
31263;DHT22;17892;52.080;9.006;2023-04-03T05:52:22;1.00;99.90
31263;DHT22;17892;52.080;9.006;2023-04-03T05:54:49;1.20;99.90
31263;DHT22;17892;52.080;9.006;2023-04-03T05:57:15;1.40;99.90
31263;DHT22;17892;52.080;9.006;2023-04-03T05:59:45;1.70;99.90
31263;DHT22;17892;52.080;9.006;2023-04-03T06:02:13;2.10;99.90
31263;DHT22;17892;52.080;9.006;2023-04-03T06:04:41;2.30;99.90
31263;DHT22;17892;52.080;9.006;2023-04-03T06:07:11;2.60;99.90
31263;DHT22;17892;52.080;9.006;2023-04-03T06:09:38;2.90;99.90
31263;DHT22;17892;52.080;9.006;2023-04-03T06:12:05;3.20;99.90
31263;DHT22;17892;52.080;9.006;2023-04-03T06:14:31;3.50;99.90
31263;DHT22;17892;52.080;9.006;2023-04-03T06:16:56;3.70;99.90
31263;DHT22;17892;52.080;9.006;2023-04-03T06:19:22;4.00;99.90
31263;DHT22;17892;52.080;9.006;2023-04-03T06:21:48;4.30;99.90
31263;DHT22;17892;52.080;9.006;2023-04-03T06:24:16;4.50;99.90
31263;DHT22;17892;52.080;9.006;2023-04-03T06:26:42;4.80;99.90
31263;DHT22;17892;52.080;9.006;2023-04-03T06:29:08;5.00;99.90
31263;DHT22;17892;52.080;9.006;2023-04-03T06:31:35;5.20;99.90
31263;DHT22;17892;52.080;9.006;2023-04-03T06:34:02;5.40;99.90
31263;DHT22;17892;52.080;9.006;2023-04-03T06:36:28;5.50;99.90
31263;DHT22;17892;52.080;9.006;2023-04-03T06:38:55;5.70;99.90
31263;DHT22;17892;52.080;9.006;2023-04-03T06:41:21;5.90;99.90
31263;DHT22;17892;52.080;9.006;2023-04-03T06:43:47;6.00;99.90
31263;DHT22;17892;52.080;9.006;2023-04-03T06:46:17;6.10;99.90
31263;DHT22;17892;52.080;9.006;2023-04-03T06:48:45;6.30;99.90
31263;DHT22;17892;52.080;9.006;2023-04-03T06:51:21;6.40;99.90
31263;DHT22;17892;52.080;9.006;2023-04-03T06:53:49;6.50;99.90
31263;DHT22;17892;52.080;9.006;2023-04-03T06:56:16;6.70;97.60
31263;DHT22;17892;52.080;9.006;2023-04-03T06:58:43;6.70;99.90
31263;DHT22;17892;52.080;9.006;2023-04-03T07:01:11;6.70;99.90
31263;DHT22;17892;52.080;9.006;2023-04-03T07:03:38;6.80;99.90
31263;DHT22;17892;52.080;9.006;2023-04-03T07:06:05;6.80;99.90
31263;DHT22;17892;52.080;9.006;2023-04-03T07:08:32;6.90;99.90
31263;DHT22;17892;52.080;9.006;2023-04-03T07:10:59;7.00;99.90
31263;DHT22;17892;52.080;9.006;2023-04-03T07:13:25;7.10;99.90
31263;DHT22;17892;52.080;9.006;2023-04-03T07:15:52;7.20;99.90
31263;DHT22;17892;52.080;9.006;2023-04-03T07:18:18;7.10;99.90
31263;DHT22;17892;52.080;9.006;2023-04-03T07:20:45;7.20;99.90
31263;DHT22;17892;52.080;9.006;2023-04-03T07:23:11;7.20;99.90
31263;DHT22;17892;52.080;9.006;2023-04-03T07:25:41;7.30;99.90
31263;DHT22;17892;52.080;9.006;2023-04-03T07:28:08;7.50;99.90
31263;DHT22;17892;52.080;9.006;2023-04-03T07:30:34;7.60;99.90
31263;DHT22;17892;52.080;9.006;2023-04-03T07:33:00;7.80;99.90
31263;DHT22;17892;52.080;9.006;2023-04-03T07:35:26;8.00;99.90
31263;DHT22;17892;52.080;9.006;2023-04-03T07:37:51;8.20;99.90
31263;DHT22;17892;52.080;9.006;2023-04-03T07:40:18;8.30;99.90
31263;DHT22;17892;52.080;9.006;2023-04-03T07:42:44;8.30;99.90
31263;DHT22;17892;52.080;9.006;2023-04-03T07:45:10;8.20;99.90
31263;DHT22;17892;52.080;9.006;2023-04-03T07:47:36;8.10;99.90
31263;DHT22;17892;52.080;9.006;2023-04-03T07:50:01;8.10;99.90
31263;DHT22;17892;52.080;9.006;2023-04-03T07:52:27;8.10;99.90
31263;DHT22;17892;52.080;9.006;2023-04-03T07:54:53;8.00;99.90
31263;DHT22;17892;52.080;9.006;2023-04-03T07:57:18;8.10;99.90
31263;DHT22;17892;52.080;9.006;2023-04-03T07:59:44;8.20;99.90
31263;DHT22;17892;52.080;9.006;2023-04-03T08:02:13;8.20;99.90
31263;DHT22;17892;52.080;9.006;2023-04-03T08:04:39;8.30;98.80
31263;DHT22;17892;52.080;9.006;2023-04-03T08:07:04;8.50;99.90
31263;DHT22;17892;52.080;9.006;2023-04-03T08:09:30;8.60;99.60
31263;DHT22;17892;52.080;9.006;2023-04-03T08:11:57;8.70;99.90
31263;DHT22;17892;52.080;9.006;2023-04-03T08:14:24;8.80;99.90
31263;DHT22;17892;52.080;9.006;2023-04-03T08:16:49;8.90;99.90
31263;DHT22;17892;52.080;9.006;2023-04-03T08:19:16;9.00;99.90
31263;DHT22;17892;52.080;9.006;2023-04-03T08:21:44;9.20;97.10
31263;DHT22;17892;52.080;9.006;2023-04-03T08:24:10;9.20;99.90
31263;DHT22;17892;52.080;9.006;2023-04-03T08:26:36;9.20;95.90
31263;DHT22;17892;52.080;9.006;2023-04-03T08:29:03;9.30;97.80
31263;DHT22;17892;52.080;9.006;2023-04-03T08:31:29;9.30;99.90
31263;DHT22;17892;52.080;9.006;2023-04-03T08:33:56;9.60;99.90
31263;DHT22;17892;52.080;9.006;2023-04-03T08:36:28;9.70;99.90
31263;DHT22;17892;52.080;9.006;2023-04-03T08:38:56;10.00;99.90
31263;DHT22;17892;52.080;9.006;2023-04-03T08:41:35;10.20;99.90
31263;DHT22;17892;52.080;9.006;2023-04-03T08:50:18;10.30;99.90
31263;DHT22;17892;52.080;9.006;2023-04-03T08:52:52;10.30;98.20
31263;DHT22;17892;52.080;9.006;2023-04-03T08:55:34;10.30;93.80
31263;DHT22;17892;52.080;9.006;2023-04-03T08:58:20;10.30;80.40
31263;DHT22;17892;52.080;9.006;2023-04-03T09:00:51;10.20;91.90
31263;DHT22;17892;52.080;9.006;2023-04-03T09:03:22;10.30;98.80
31263;DHT22;17892;52.080;9.006;2023-04-03T09:06:00;10.40;99.90
31263;DHT22;17892;52.080;9.006;2023-04-03T09:08:50;10.60;99.90
31263;DHT22;17892;52.080;9.006;2023-04-03T09:13:59;11.10;99.90
31263;DHT22;17892;52.080;9.006;2023-04-03T09:16:48;11.30;99.90
31263;DHT22;17892;52.080;9.006;2023-04-03T09:25:13;11.70;92.70
31263;DHT22;17892;52.080;9.006;2023-04-03T09:27:41;11.80;89.30
31263;DHT22;17892;52.080;9.006;2023-04-03T09:30:19;11.70;93.80
31263;DHT22;17892;52.080;9.006;2023-04-03T09:32:50;11.70;88.90
31263;DHT22;17892;52.080;9.006;2023-04-03T09:35:24;11.70;98.30
31263;DHT22;17892;52.080;9.006;2023-04-03T09:38:15;11.70;99.00
31263;DHT22;17892;52.080;9.006;2023-04-03T09:40:50;11.60;78.90
31263;DHT22;17892;52.080;9.006;2023-04-03T09:43:34;11.60;81.10
31263;DHT22;17892;52.080;9.006;2023-04-03T09:46:24;11.30;89.80
31263;DHT22;17892;52.080;9.006;2023-04-03T09:49:03;11.30;78.80
31263;DHT22;17892;52.080;9.006;2023-04-03T09:51:30;11.30;94.70
31263;DHT22;17892;52.080;9.006;2023-04-03T09:53:57;11.50;94.10
31263;DHT22;17892;52.080;9.006;2023-04-03T09:56:27;11.30;91.60
31263;DHT22;17892;52.080;9.006;2023-04-03T10:01:38;11.50;87.00
31263;DHT22;17892;52.080;9.006;2023-04-03T10:04:23;11.50;83.40
31263;DHT22;17892;52.080;9.006;2023-04-03T10:06:54;11.40;71.30
31263;DHT22;17892;52.080;9.006;2023-04-03T10:09:27;11.30;84.90
31263;DHT22;17892;52.080;9.006;2023-04-03T10:12:11;11.40;90.50
31263;DHT22;17892;52.080;9.006;2023-04-03T10:14:54;11.60;99.90
31263;DHT22;17892;52.080;9.006;2023-04-03T10:20:40;12.30;99.90
31263;DHT22;17892;52.080;9.006;2023-04-03T10:23:31;12.50;98.20
31263;DHT22;17892;52.080;9.006;2023-04-03T10:26:17;12.50;93.70
31263;DHT22;17892;52.080;9.006;2023-04-03T10:29:27;12.70;92.60
31263;DHT22;17892;52.080;9.006;2023-04-03T10:32:34;12.70;69.60
31263;DHT22;17892;52.080;9.006;2023-04-03T10:35:28;12.60;73.00
31263;DHT22;17892;52.080;9.006;2023-04-03T10:41:07;12.70;99.90
31263;DHT22;17892;52.080;9.006;2023-04-03T10:43:50;12.50;82.30
31263;DHT22;17892;52.080;9.006;2023-04-03T10:46:33;12.50;88.30
31263;DHT22;17892;52.080;9.006;2023-04-03T10:51:54;12.10;79.00
31263;DHT22;17892;52.080;9.006;2023-04-03T10:54:48;11.60;73.30
31263;DHT22;17892;52.080;9.006;2023-04-03T10:57:22;10.90;65.60
31263;DHT22;17892;52.080;9.006;2023-04-03T10:59:59;10.20;80.90
31263;DHT22;17892;52.080;9.006;2023-04-03T11:02:31;9.90;84.00
31263;DHT22;17892;52.080;9.006;2023-04-03T11:05:05;9.70;91.30
31263;DHT22;17892;52.080;9.006;2023-04-03T11:07:43;9.60;91.40
31263;DHT22;17892;52.080;9.006;2023-04-03T11:10:23;9.50;93.30
31263;DHT22;17892;52.080;9.006;2023-04-03T11:12:56;9.40;92.30
31263;DHT22;17892;52.080;9.006;2023-04-03T11:15:30;9.70;99.90
31263;DHT22;17892;52.080;9.006;2023-04-03T11:18:25;10.00;99.90
31263;DHT22;17892;52.080;9.006;2023-04-03T11:21:09;10.30;99.90
31263;DHT22;17892;52.080;9.006;2023-04-03T11:23:40;10.50;80.90
31263;DHT22;17892;52.080;9.006;2023-04-03T11:26:15;10.60;99.90
31263;DHT22;17892;52.080;9.006;2023-04-03T11:28:43;10.60;86.30
31263;DHT22;17892;52.080;9.006;2023-04-03T11:37:34;10.40;93.80
31263;DHT22;17892;52.080;9.006;2023-04-03T11:40:07;10.10;72.10
31263;DHT22;17892;52.080;9.006;2023-04-03T11:42:49;10.10;94.40
31263;DHT22;17892;52.080;9.006;2023-04-03T11:47:50;10.10;98.80
31263;DHT22;17892;52.080;9.006;2023-04-03T11:50:46;10.10;99.90
31263;DHT22;17892;52.080;9.006;2023-04-03T11:58:20;10.10;94.30
31263;DHT22;17892;52.080;9.006;2023-04-03T12:00:55;10.10;99.20
31263;DHT22;17892;52.080;9.006;2023-04-03T12:05:52;9.90;84.60
31263;DHT22;17892;52.080;9.006;2023-04-03T12:16:29;9.90;92.60
31263;DHT22;17892;52.080;9.006;2023-04-03T12:27:17;9.40;95.20
31263;DHT22;17892;52.080;9.006;2023-04-03T12:29:59;9.70;88.80
31263;DHT22;17892;52.080;9.006;2023-04-03T12:32:44;10.30;99.90
31263;DHT22;17892;52.080;9.006;2023-04-03T12:38:49;11.60;81.90
31263;DHT22;17892;52.080;9.006;2023-04-03T12:41:58;11.90;72.50
31263;DHT22;17892;52.080;9.006;2023-04-03T12:44:57;12.00;62.90
31263;DHT22;17892;52.080;9.006;2023-04-03T12:47:32;11.90;68.10
31263;DHT22;17892;52.080;9.006;2023-04-03T12:50:02;12.10;88.10
31263;DHT22;17892;52.080;9.006;2023-04-03T12:52:31;12.30;97.00
31263;DHT22;17892;52.080;9.006;2023-04-03T12:55:00;12.70;99.90
31263;DHT22;17892;52.080;9.006;2023-04-03T12:57:29;13.00;98.30
31263;DHT22;17892;52.080;9.006;2023-04-03T12:59:56;13.00;97.80
31263;DHT22;17892;52.080;9.006;2023-04-03T13:02:23;12.90;90.10
31263;DHT22;17892;52.080;9.006;2023-04-03T13:04:59;12.70;83.00
31263;DHT22;17892;52.080;9.006;2023-04-03T13:07:34;12.40;92.00
31263;DHT22;17892;52.080;9.006;2023-04-03T13:10:14;12.20;88.30
31263;DHT22;17892;52.080;9.006;2023-04-03T13:15:28;12.30;85.70
31263;DHT22;17892;52.080;9.006;2023-04-03T13:21:00;12.80;99.50
31263;DHT22;17892;52.080;9.006;2023-04-03T13:23:27;12.80;95.90
31263;DHT22;17892;52.080;9.006;2023-04-03T13:25:54;12.90;99.90
31263;DHT22;17892;52.080;9.006;2023-04-03T13:28:23;12.80;99.90
31263;DHT22;17892;52.080;9.006;2023-04-03T13:33:45;12.30;65.50
31263;DHT22;17892;52.080;9.006;2023-04-03T13:36:19;12.10;74.40
31263;DHT22;17892;52.080;9.006;2023-04-03T13:41:37;12.00;87.00
31263;DHT22;17892;52.080;9.006;2023-04-03T13:46:49;11.90;81.80
31263;DHT22;17892;52.080;9.006;2023-04-03T13:49:35;11.90;90.50
31263;DHT22;17892;52.080;9.006;2023-04-03T13:52:25;12.20;83.20
31263;DHT22;17892;52.080;9.006;2023-04-03T13:55:09;12.60;95.00
31263;DHT22;17892;52.080;9.006;2023-04-03T13:58:00;12.50;72.70
31263;DHT22;17892;52.080;9.006;2023-04-03T14:00:34;12.30;86.90
31263;DHT22;17892;52.080;9.006;2023-04-03T14:05:50;12.40;88.80
31263;DHT22;17892;52.080;9.006;2023-04-03T14:08:17;12.50;93.10
31263;DHT22;17892;52.080;9.006;2023-04-03T14:10:43;12.40;65.10
31263;DHT22;17892;52.080;9.006;2023-04-03T14:13:12;12.40;80.00
31263;DHT22;17892;52.080;9.006;2023-04-03T14:15:39;12.40;83.90
31263;DHT22;17892;52.080;9.006;2023-04-03T14:18:05;12.60;88.70
31263;DHT22;17892;52.080;9.006;2023-04-03T14:20:32;12.70;89.50
31263;DHT22;17892;52.080;9.006;2023-04-03T14:22:58;12.70;73.10
31263;DHT22;17892;52.080;9.006;2023-04-03T14:25:23;12.70;73.20
31263;DHT22;17892;52.080;9.006;2023-04-03T14:27:52;12.70;75.90
31263;DHT22;17892;52.080;9.006;2023-04-03T14:30:31;12.60;68.40
31263;DHT22;17892;52.080;9.006;2023-04-03T14:33:00;12.40;56.00
31263;DHT22;17892;52.080;9.006;2023-04-03T14:35:27;12.30;77.90
31263;DHT22;17892;52.080;9.006;2023-04-03T14:37:53;12.30;83.80
31263;DHT22;17892;52.080;9.006;2023-04-03T14:40:24;12.20;81.60
31263;DHT22;17892;52.080;9.006;2023-04-03T14:42:52;12.40;92.60
31263;DHT22;17892;52.080;9.006;2023-04-03T14:45:21;12.30;90.70
31263;DHT22;17892;52.080;9.006;2023-04-03T14:47:50;12.60;93.70
31263;DHT22;17892;52.080;9.006;2023-04-03T14:50:22;12.60;91.20
31263;DHT22;17892;52.080;9.006;2023-04-03T14:52:51;12.60;83.10
31263;DHT22;17892;52.080;9.006;2023-04-03T14:55:21;12.60;85.40
31263;DHT22;17892;52.080;9.006;2023-04-03T14:57:48;12.60;84.30
31263;DHT22;17892;52.080;9.006;2023-04-03T15:00:18;12.70;95.30
31263;DHT22;17892;52.080;9.006;2023-04-03T15:02:47;12.60;91.70
31263;DHT22;17892;52.080;9.006;2023-04-03T15:05:14;12.60;79.90
31263;DHT22;17892;52.080;9.006;2023-04-03T15:07:48;12.50;81.80
31263;DHT22;17892;52.080;9.006;2023-04-03T15:10:17;12.20;69.70
31263;DHT22;17892;52.080;9.006;2023-04-03T15:12:46;11.90;64.20
31263;DHT22;17892;52.080;9.006;2023-04-03T15:15:14;11.70;86.50
31263;DHT22;17892;52.080;9.006;2023-04-03T15:17:41;11.60;88.90
31263;DHT22;17892;52.080;9.006;2023-04-03T15:20:20;11.80;96.90
31263;DHT22;17892;52.080;9.006;2023-04-03T15:22:47;12.00;96.90
31263;DHT22;17892;52.080;9.006;2023-04-03T15:25:14;12.30;79.30
31263;DHT22;17892;52.080;9.006;2023-04-03T15:27:41;12.50;97.20
31263;DHT22;17892;52.080;9.006;2023-04-03T15:30:11;12.60;94.30
31263;DHT22;17892;52.080;9.006;2023-04-03T15:32:40;12.60;98.80
31263;DHT22;17892;52.080;9.006;2023-04-03T15:35:06;12.80;99.70
31263;DHT22;17892;52.080;9.006;2023-04-03T15:37:32;12.60;76.70
31263;DHT22;17892;52.080;9.006;2023-04-03T15:39:58;12.50;82.00
31263;DHT22;17892;52.080;9.006;2023-04-03T15:42:24;12.20;72.40
31263;DHT22;17892;52.080;9.006;2023-04-03T15:44:49;12.00;84.80
31263;DHT22;17892;52.080;9.006;2023-04-03T15:47:15;11.80;82.60
31263;DHT22;17892;52.080;9.006;2023-04-03T15:49:41;11.30;73.60
31263;DHT22;17892;52.080;9.006;2023-04-03T15:52:07;11.10;81.00
31263;DHT22;17892;52.080;9.006;2023-04-03T15:54:33;11.00;90.00
31263;DHT22;17892;52.080;9.006;2023-04-03T15:56:59;11.00;87.10
31263;DHT22;17892;52.080;9.006;2023-04-03T15:59:25;11.10;91.50
31263;DHT22;17892;52.080;9.006;2023-04-03T16:01:51;11.20;93.30
31263;DHT22;17892;52.080;9.006;2023-04-03T16:04:18;11.40;95.10
31263;DHT22;17892;52.080;9.006;2023-04-03T16:06:46;11.60;92.30
31263;DHT22;17892;52.080;9.006;2023-04-03T16:09:12;11.70;91.80
31263;DHT22;17892;52.080;9.006;2023-04-03T16:11:38;12.00;99.00
31263;DHT22;17892;52.080;9.006;2023-04-03T16:14:06;12.20;97.50
31263;DHT22;17892;52.080;9.006;2023-04-03T16:16:33;12.30;87.30
31263;DHT22;17892;52.080;9.006;2023-04-03T16:18:59;12.20;84.90
31263;DHT22;17892;52.080;9.006;2023-04-03T16:21:25;12.10;63.20
31263;DHT22;17892;52.080;9.006;2023-04-03T16:23:52;11.80;80.60
31263;DHT22;17892;52.080;9.006;2023-04-03T16:26:18;11.60;85.40
31263;DHT22;17892;52.080;9.006;2023-04-03T16:28:44;11.30;86.60
31263;DHT22;17892;52.080;9.006;2023-04-03T16:31:10;11.00;81.70
31263;DHT22;17892;52.080;9.006;2023-04-03T16:33:35;10.80;90.20
31263;DHT22;17892;52.080;9.006;2023-04-03T16:36:03;10.70;94.10
31263;DHT22;17892;52.080;9.006;2023-04-03T16:38:30;10.70;95.00
31263;DHT22;17892;52.080;9.006;2023-04-03T16:40:55;10.80;98.10
31263;DHT22;17892;52.080;9.006;2023-04-03T16:43:26;10.90;98.00
31263;DHT22;17892;52.080;9.006;2023-04-03T16:45:52;11.10;94.10
31263;DHT22;17892;52.080;9.006;2023-04-03T16:48:17;11.30;99.90
31263;DHT22;17892;52.080;9.006;2023-04-03T16:50:46;11.50;98.90
31263;DHT22;17892;52.080;9.006;2023-04-03T16:53:14;11.60;90.90
31263;DHT22;17892;52.080;9.006;2023-04-03T16:55:40;11.60;80.10
31263;DHT22;17892;52.080;9.006;2023-04-03T16:58:06;11.40;87.00
31263;DHT22;17892;52.080;9.006;2023-04-03T17:00:32;11.20;80.70
31263;DHT22;17892;52.080;9.006;2023-04-03T17:02:59;10.90;80.20
31263;DHT22;17892;52.080;9.006;2023-04-03T17:05:25;10.70;87.30
31263;DHT22;17892;52.080;9.006;2023-04-03T17:07:51;10.40;82.90
31263;DHT22;17892;52.080;9.006;2023-04-03T17:10:16;10.20;85.40
31263;DHT22;17892;52.080;9.006;2023-04-03T17:12:42;10.00;90.50
31263;DHT22;17892;52.080;9.006;2023-04-03T17:15:09;9.70;82.10
31263;DHT22;17892;52.080;9.006;2023-04-03T17:17:35;9.40;80.30
31263;DHT22;17892;52.080;9.006;2023-04-03T17:20:02;9.30;86.50